createdAt,value
2022-08-05T00:00:23.610Z,101722.00
2022-08-05T00:02:54.875Z,101727.00
2022-08-05T00:06:03.279Z,101722.00
2022-08-05T00:08:34.395Z,101720.00
2022-08-05T00:11:04.871Z,101720.00
2022-08-05T00:13:53.145Z,101715.00
2022-08-05T00:16:36.571Z,101709.00
2022-08-05T00:19:11.406Z,101717.00
2022-08-05T00:21:42.574Z,101717.00
2022-08-05T00:24:18.850Z,101724.00
2022-08-05T00:26:50.727Z,101718.00
2022-08-05T00:29:25.412Z,101721.00
2022-08-05T00:32:12.278Z,101716.00
2022-08-05T00:35:04.759Z,101706.00
2022-08-05T00:37:35.733Z,101711.00
2022-08-05T00:40:26.653Z,101707.00
2022-08-05T00:43:00.278Z,101706.00
2022-08-05T00:45:42.750Z,101706.00
2022-08-05T00:48:14.564Z,101716.00
2022-08-05T00:50:46.642Z,101706.00
2022-08-05T00:54:00.706Z,101709.00
2022-08-05T00:56:10.122Z,101713.00
2022-08-05T00:58:42.489Z,101706.00
2022-08-05T01:01:16.493Z,101704.00
2022-08-05T01:04:13.896Z,101708.00
2022-08-05T01:06:48.540Z,101707.00
2022-08-05T01:09:20.002Z,101710.00
2022-08-05T01:11:56.819Z,101708.00
2022-08-05T01:14:33.537Z,101702.00
2022-08-05T01:17:08.918Z,101708.00
2022-08-05T01:20:02.213Z,101702.00
2022-08-05T01:22:51.432Z,101705.00
2022-08-05T01:25:40.754Z,101702.00
2022-08-05T01:28:28.542Z,101701.00
2022-08-05T01:31:05.941Z,101705.00
2022-08-05T01:33:48.973Z,101706.00
2022-08-05T01:36:28.072Z,101703.00
2022-08-05T01:39:01.104Z,101702.00
2022-08-05T01:41:40.204Z,101713.00
2022-08-05T01:44:16.338Z,101702.00
2022-08-05T01:46:47.457Z,101708.00
2022-08-05T01:49:24.652Z,101696.00
2022-08-05T01:52:01.098Z,101701.00
2022-08-05T01:54:46.115Z,101700.00
2022-08-05T01:58:13.191Z,101703.00
2022-08-05T02:00:14.123Z,101711.00
2022-08-05T02:02:53.644Z,101710.00
2022-08-05T02:05:34.155Z,101705.00
2022-08-05T02:08:05.886Z,101712.00
2022-08-05T02:10:43.003Z,101702.00
2022-08-05T02:13:18.709Z,101697.00
2022-08-05T02:16:02.999Z,101698.00
2022-08-05T02:18:42.060Z,101696.00
2022-08-05T02:21:17.641Z,101703.00
2022-08-05T02:23:54.581Z,101704.00
2022-08-05T02:26:51.811Z,101705.00
2022-08-05T02:30:00.006Z,101708.00
2022-08-05T02:32:24.255Z,101705.00
2022-08-05T02:35:13.967Z,101709.00
2022-08-05T02:37:46.536Z,101715.00
2022-08-05T02:40:19.609Z,101714.00
2022-08-05T02:42:54.398Z,101705.00
2022-08-05T02:45:25.484Z,101710.00
2022-08-05T02:48:11.922Z,101708.00
2022-08-05T02:50:46.076Z,101703.00
2022-08-05T02:53:19.466Z,101703.00
2022-08-05T02:55:59.532Z,101708.00
2022-08-05T02:58:30.496Z,101711.00
2022-08-05T03:01:03.794Z,101712.00
2022-08-05T03:04:03.061Z,101714.00
2022-08-05T03:06:55.961Z,101719.00
2022-08-05T03:09:26.985Z,101716.00
2022-08-05T03:12:07.989Z,101714.00
2022-08-05T03:14:45.678Z,101717.00
2022-08-05T03:17:14.937Z,101713.00
2022-08-05T03:19:45.563Z,101723.00
2022-08-05T03:22:16.457Z,101717.00
2022-08-05T03:24:52.161Z,101726.00
2022-08-05T03:27:22.577Z,101722.00
2022-08-05T03:30:07.325Z,101726.00
2022-08-05T03:32:40.396Z,101723.00
2022-08-05T03:35:11.408Z,101730.00
2022-08-05T03:37:46.646Z,101729.00
2022-08-05T03:40:31.074Z,101729.00
2022-08-05T03:43:01.449Z,101731.00
2022-08-05T03:45:58.083Z,101734.00
2022-08-05T03:48:29.036Z,101731.00
2022-08-05T03:52:39.131Z,101734.00
2022-08-05T03:55:51.847Z,101727.00
2022-08-05T03:57:00.021Z,101733.00
2022-08-05T03:59:46.865Z,101728.00
2022-08-05T04:02:39.034Z,101727.00
2022-08-05T04:05:16.098Z,101723.00
2022-08-05T04:07:57.075Z,101725.00
2022-08-05T04:10:34.520Z,101723.00
2022-08-05T04:13:08.363Z,101723.00
2022-08-05T04:15:37.404Z,101727.00
2022-08-05T04:18:07.915Z,101721.00
2022-08-05T04:20:41.312Z,101731.00
2022-08-05T04:23:16.045Z,101729.00
2022-08-05T04:25:57.478Z,101731.00
2022-08-05T04:28:31.028Z,101733.00
2022-08-05T04:31:01.977Z,101738.00
2022-08-05T04:34:17.663Z,101733.00
2022-08-05T04:36:45.326Z,101737.00
2022-08-05T04:39:18.961Z,101735.00
2022-08-05T04:41:48.488Z,101743.00
2022-08-05T04:44:21.457Z,101743.00
2022-08-05T04:46:59.106Z,101746.00
2022-08-05T04:50:01.057Z,101747.00
2022-08-05T04:52:18.798Z,101744.00
2022-08-05T04:54:49.460Z,101748.00
2022-08-05T04:57:18.535Z,101749.00
2022-08-05T04:59:47.975Z,101749.00
2022-08-05T05:02:36.103Z,101749.00
2022-08-05T05:05:16.581Z,101757.00
2022-08-05T05:08:00.968Z,101751.00
2022-08-05T05:10:39.047Z,101746.00
2022-08-05T05:13:10.329Z,101741.00
2022-08-05T05:15:56.953Z,101740.00
2022-08-05T05:18:33.380Z,101741.00
2022-08-05T05:21:04.360Z,101739.00
2022-08-05T05:23:39.015Z,101740.00
2022-08-05T05:26:28.744Z,101732.00
2022-08-05T05:29:10.068Z,101745.00
2022-08-05T05:31:46.537Z,101747.00
2022-08-05T05:34:18.085Z,101741.00
2022-08-05T05:36:52.733Z,101743.00
2022-08-05T05:39:21.464Z,101742.00
2022-08-05T05:41:54.634Z,101745.00
2022-08-05T05:44:37.384Z,101744.00
2022-08-05T05:47:30.362Z,101744.00
2022-08-05T05:50:01.579Z,101754.00
2022-08-05T05:52:34.607Z,101748.00
2022-08-05T05:55:13.962Z,101747.00
2022-08-05T05:57:52.822Z,101749.00
2022-08-05T06:00:27.587Z,101743.00
2022-08-05T06:03:02.380Z,101755.00
2022-08-05T06:05:31.913Z,101744.00
2022-08-05T06:08:01.976Z,101750.00
2022-08-05T06:10:36.689Z,101749.00
2022-08-05T06:13:07.861Z,101746.00
2022-08-05T06:16:30.435Z,101746.00
2022-08-05T06:18:30.768Z,101747.00
2022-08-05T06:21:01.648Z,101752.00
2022-08-05T06:23:43.553Z,101759.00
2022-08-05T06:26:21.502Z,101751.00
2022-08-05T06:28:54.374Z,101754.00
2022-08-05T06:31:23.059Z,101750.00
2022-08-05T06:34:07.509Z,101751.00
2022-08-05T06:36:58.116Z,101743.00
2022-08-05T06:39:27.209Z,101742.00
2022-08-05T06:41:58.837Z,101747.00
2022-08-05T06:44:29.285Z,101745.00
2022-08-05T06:46:58.583Z,101744.00
2022-08-05T06:50:01.759Z,101753.00
2022-08-05T06:52:37.120Z,101740.00
2022-08-05T06:55:08.510Z,101747.00
2022-08-05T06:57:58.119Z,101752.00
2022-08-05T07:00:27.662Z,101751.00
2022-08-05T07:02:58.755Z,101751.00
2022-08-05T07:05:37.769Z,101753.00
2022-08-05T07:08:11.142Z,101764.00
2022-08-05T07:10:53.467Z,101759.00
2022-08-05T07:13:58.082Z,101765.00
2022-08-05T07:18:02.208Z,101762.00
2022-08-05T07:22:27.640Z,101757.00
2022-08-05T07:25:23.376Z,101766.00
2022-08-05T07:27:57.363Z,101774.00
2022-08-05T07:30:32.269Z,101768.00
2022-08-05T07:33:05.166Z,101767.00
2022-08-05T07:36:04.202Z,101762.00
2022-08-05T07:38:34.340Z,101768.00
2022-08-05T07:42:09.118Z,101768.00
2022-08-05T07:43:56.665Z,101762.00
2022-08-05T07:46:27.363Z,101759.00
2022-08-05T07:49:04.887Z,101763.00
2022-08-05T07:51:48.680Z,101763.00
2022-08-05T07:54:30.224Z,101764.00
2022-08-05T07:57:17.644Z,101765.00
2022-08-05T07:59:50.467Z,101765.00
2022-08-05T08:02:26.566Z,101767.00
2022-08-05T08:05:01.887Z,101762.00
2022-08-05T08:07:39.440Z,101764.00
2022-08-05T08:10:21.748Z,101759.00
2022-08-05T08:12:51.077Z,101753.00
2022-08-05T08:15:37.167Z,101756.00
2022-08-05T08:18:13.758Z,101747.00
2022-08-05T08:21:02.200Z,101746.00
2022-08-05T08:24:01.238Z,101740.00
2022-08-05T08:26:27.094Z,101745.00
2022-08-05T08:29:21.578Z,101743.00
2022-08-05T08:31:50.033Z,101742.00
2022-08-05T08:34:30.379Z,101731.00
2022-08-05T08:37:09.125Z,101733.00
2022-08-05T08:39:38.171Z,101743.00
2022-08-05T08:42:34.570Z,101737.00
2022-08-05T08:45:20.239Z,101730.00
2022-08-05T08:48:07.530Z,101732.00
2022-08-05T08:51:22.806Z,101723.00
2022-08-05T08:53:44.989Z,101730.00
2022-08-05T08:56:14.447Z,101732.00
2022-08-05T08:58:47.901Z,101731.00
2022-08-05T09:01:21.813Z,101727.00
2022-08-05T09:03:55.814Z,101727.00
2022-08-05T09:06:30.394Z,101724.00
2022-08-05T09:09:03.025Z,101713.00
2022-08-05T09:11:52.669Z,101725.00
2022-08-05T09:14:58.724Z,101720.00
2022-08-05T09:17:40.120Z,101719.00
2022-08-05T09:20:10.629Z,101711.00
2022-08-05T09:23:19.914Z,101700.00
2022-08-05T09:26:08.534Z,101707.00
2022-08-05T09:28:41.413Z,101706.00
2022-08-05T09:32:38.569Z,101707.00
2022-08-05T09:34:04.402Z,101702.00
2022-08-05T09:36:56.070Z,101701.00
2022-08-05T09:39:45.863Z,101706.00
2022-08-05T09:42:23.942Z,101704.00
2022-08-05T09:45:17.982Z,101702.00
2022-08-05T09:47:55.920Z,101706.00
2022-08-05T09:50:38.546Z,101711.00
2022-08-05T09:53:22.959Z,101697.00
2022-08-05T09:56:02.986Z,101697.00
2022-08-05T09:58:34.827Z,101707.00
2022-08-05T10:01:15.295Z,101704.00
2022-08-05T10:04:00.073Z,101695.00
2022-08-05T10:06:29.537Z,101699.00
2022-08-05T10:09:27.581Z,101699.00
2022-08-05T10:12:30.604Z,101692.00
2022-08-05T10:15:21.944Z,101696.00
2022-08-05T10:18:20.375Z,101696.00
2022-08-05T10:20:57.652Z,101700.00
2022-08-05T10:23:55.633Z,101688.00
2022-08-05T10:26:31.654Z,101691.00
2022-08-05T10:29:02.639Z,101683.00
2022-08-05T10:32:54.723Z,101677.00
2022-08-05T10:34:25.937Z,101683.00
2022-08-05T10:37:00.828Z,101681.00
2022-08-05T10:39:59.455Z,101678.00
2022-08-05T10:42:33.371Z,101680.00
2022-08-05T10:45:21.589Z,101677.00
2022-08-05T10:48:30.295Z,101679.00
2022-08-05T10:51:04.247Z,101669.00
2022-08-05T10:53:45.374Z,101671.00
2022-08-05T10:56:25.522Z,101675.00
2022-08-05T10:59:12.473Z,101672.00
2022-08-05T11:02:14.089Z,101681.00
2022-08-05T11:04:50.076Z,101674.00
2022-08-05T11:07:32.835Z,101673.00
2022-08-05T11:10:27.661Z,101674.00
2022-08-05T11:12:58.943Z,101663.00
2022-08-05T11:16:00.303Z,101664.00
2022-08-05T11:18:34.126Z,101664.00
2022-08-05T11:21:11.710Z,101661.00
2022-08-05T11:24:05.632Z,101668.00
2022-08-05T11:26:49.394Z,101661.00
2022-08-05T11:29:41.692Z,101654.00
2022-08-05T11:32:28.099Z,101650.00
2022-08-05T11:34:58.474Z,101644.00
2022-08-05T11:38:30.623Z,101649.00
2022-08-05T11:41:36.858Z,101649.00
2022-08-05T11:44:04.602Z,101645.00
2022-08-05T11:47:09.841Z,101642.00
2022-08-05T11:49:34.088Z,101645.00
2022-08-05T11:52:11.271Z,101645.00
2022-08-05T11:54:43.568Z,101636.00
2022-08-05T11:57:25.659Z,101631.00
2022-08-05T11:59:56.038Z,101634.00
2022-08-05T12:02:33.106Z,101626.00
2022-08-05T12:05:18.483Z,101633.00
2022-08-05T12:08:09.296Z,101625.00
2022-08-05T12:10:45.027Z,101618.00
2022-08-05T12:13:28.345Z,101623.00
2022-08-05T12:16:14.600Z,101619.00
2022-08-05T12:18:52.427Z,101626.00
2022-08-05T12:21:29.621Z,101618.00
2022-08-05T12:24:06.870Z,101626.00
2022-08-05T12:26:44.135Z,101623.00
2022-08-05T12:29:17.938Z,101621.00
2022-08-05T12:31:54.622Z,101620.00
2022-08-05T12:34:28.570Z,101620.00
2022-08-05T12:37:17.682Z,101619.00
2022-08-05T12:39:53.979Z,101615.00
2022-08-05T12:42:25.310Z,101617.00
2022-08-05T12:45:02.249Z,101620.00
2022-08-05T12:47:33.023Z,101605.00
2022-08-05T12:50:17.362Z,101605.00
2022-08-05T12:52:59.735Z,101609.00
2022-08-05T12:55:33.030Z,101612.00
2022-08-05T12:58:49.211Z,101604.00
2022-08-05T13:02:01.664Z,101604.00
2022-08-05T13:03:45.705Z,101590.00
2022-08-05T13:06:19.913Z,101581.00
2022-08-05T13:08:52.386Z,101592.00
2022-08-05T13:11:59.864Z,101591.00
2022-08-05T13:14:36.438Z,101595.00
2022-08-05T13:17:12.525Z,101593.00
2022-08-05T13:19:51.939Z,101587.00
2022-08-05T13:22:28.067Z,101587.00
2022-08-05T13:25:05.292Z,101582.00
2022-08-05T13:27:38.233Z,101579.00
2022-08-05T13:30:34.188Z,101577.00
2022-08-05T13:33:02.712Z,101582.00
2022-08-05T13:35:47.229Z,101576.00
2022-08-05T13:38:30.936Z,101571.00
2022-08-05T13:41:03.906Z,101567.00
2022-08-05T13:43:33.171Z,101555.00
2022-08-05T13:46:30.738Z,101555.00
2022-08-05T13:49:10.575Z,101552.00
2022-08-05T13:51:46.139Z,101553.00
2022-08-05T13:54:21.052Z,101554.00
2022-08-05T13:56:54.189Z,101553.00
2022-08-05T13:59:27.396Z,101549.00
2022-08-05T14:02:05.546Z,101540.00
2022-08-05T14:04:55.248Z,101546.00
2022-08-05T14:08:00.826Z,101541.00
2022-08-05T14:10:28.425Z,101538.00
2022-08-05T14:13:00.225Z,101546.00
2022-08-05T14:16:07.886Z,101543.00
2022-08-05T14:18:23.202Z,101532.00
2022-08-05T14:20:54.868Z,101535.00
2022-08-05T14:23:29.685Z,101540.00
2022-08-05T14:26:06.350Z,101538.00
2022-08-05T14:28:35.531Z,101532.00
2022-08-05T14:31:05.068Z,101530.00
2022-08-05T14:33:59.217Z,101537.00
2022-08-05T14:36:29.697Z,101527.00
2022-08-05T14:38:59.137Z,101528.00
2022-08-05T14:41:31.612Z,101528.00
2022-08-05T14:44:14.463Z,101531.00
2022-08-05T14:46:49.783Z,101528.00
2022-08-05T14:49:20.308Z,101530.00
2022-08-05T14:51:52.186Z,101523.00
2022-08-05T14:54:27.919Z,101522.00
2022-08-05T14:57:00.804Z,101521.00
2022-08-05T14:59:35.358Z,101523.00
2022-08-05T15:02:15.744Z,101516.00
2022-08-05T15:04:47.947Z,101519.00
2022-08-05T15:08:10.812Z,101510.00
2022-08-05T15:10:09.699Z,101511.00
2022-08-05T15:13:00.158Z,101505.00
2022-08-05T15:15:54.509Z,101510.00
2022-08-05T15:18:19.184Z,101512.00
2022-08-05T15:20:49.843Z,101508.00
2022-08-05T15:23:20.143Z,101509.00
2022-08-05T15:25:56.619Z,101508.00
2022-08-05T15:28:28.061Z,101511.00
2022-08-05T15:31:00.713Z,101507.00
2022-08-05T15:34:05.540Z,101501.00
2022-08-05T15:36:28.584Z,101502.00
2022-08-05T15:40:58.425Z,101504.00
2022-08-05T15:41:55.924Z,101501.00
2022-08-05T15:44:32.033Z,101503.00
2022-08-05T15:47:03.998Z,101501.00
2022-08-05T15:49:53.829Z,101500.00
2022-08-05T15:52:52.036Z,101494.00
2022-08-05T15:55:16.417Z,101496.00
2022-08-05T15:57:49.022Z,101493.00
2022-08-05T16:00:26.351Z,101494.00
2022-08-05T16:03:08.157Z,101492.00
2022-08-05T16:05:39.051Z,101496.00
2022-08-05T16:08:12.437Z,101493.00
2022-08-05T16:10:48.408Z,101490.00
2022-08-05T16:13:24.060Z,101494.00
2022-08-05T16:16:03.955Z,101494.00
2022-08-05T16:18:34.248Z,101490.00
2022-08-05T16:21:04.211Z,101488.00
2022-08-05T16:23:53.610Z,101492.00
2022-08-05T16:26:26.592Z,101494.00
2022-08-05T16:29:03.744Z,101493.00
2022-08-05T16:31:57.200Z,101482.00
2022-08-05T16:34:24.370Z,101482.00
2022-08-05T16:36:56.011Z,101486.00
2022-08-05T16:40:04.302Z,101486.00
2022-08-05T16:42:28.071Z,101481.00
2022-08-05T16:44:57.860Z,101477.00
2022-08-05T16:47:36.409Z,101479.00
2022-08-05T16:50:18.120Z,101472.00
2022-08-05T16:52:47.490Z,101468.00
2022-08-05T16:55:19.786Z,101473.00
2022-08-05T16:58:00.079Z,101466.00
2022-08-05T17:00:34.661Z,101476.00
2022-08-05T17:03:15.338Z,101471.00
2022-08-05T17:05:53.857Z,101468.00
2022-08-05T17:08:36.423Z,101469.00
2022-08-05T17:11:17.507Z,101470.00
2022-08-05T17:13:47.511Z,101466.00
2022-08-05T17:16:36.152Z,101467.00
2022-08-05T17:19:10.734Z,101464.00
2022-08-05T17:21:40.619Z,101465.00
2022-08-05T17:24:18.499Z,101463.00
2022-08-05T17:27:02.073Z,101461.00
2022-08-05T17:29:33.731Z,101463.00
2022-08-05T17:32:11.758Z,101462.00
2022-08-05T17:34:48.485Z,101463.00
2022-08-05T17:37:40.616Z,101461.00
2022-08-05T17:40:15.160Z,101462.00
2022-08-05T17:42:51.890Z,101468.00
2022-08-05T17:45:29.608Z,101463.00
2022-08-05T17:48:09.025Z,101460.00
2022-08-05T17:50:40.440Z,101465.00
2022-08-05T17:53:10.674Z,101458.00
2022-08-05T17:55:40.929Z,101461.00
2022-08-05T17:58:16.131Z,101454.00
2022-08-05T18:00:50.740Z,101461.00
2022-08-05T18:06:14.990Z,101461.00
2022-08-05T18:08:52.234Z,101458.00
2022-08-05T18:11:33.196Z,101463.00
2022-08-05T18:14:07.539Z,101461.00
2022-08-05T18:16:50.968Z,101455.00
2022-08-05T18:19:23.031Z,101457.00
2022-08-05T18:22:08.397Z,101459.00
2022-08-05T18:24:41.155Z,101457.00
2022-08-05T18:27:18.757Z,101454.00
2022-08-05T18:29:54.342Z,101460.00
2022-08-05T18:32:30.336Z,101454.00
2022-08-05T18:35:03.019Z,101459.00
2022-08-05T18:37:40.248Z,101448.00
2022-08-05T18:41:03.336Z,101443.00
2022-08-05T18:43:03.459Z,101449.00
2022-08-05T18:45:41.356Z,101447.00
2022-08-05T18:48:17.546Z,101451.00
2022-08-05T18:52:06.651Z,101445.00
2022-08-05T18:54:08.830Z,101450.00
2022-08-05T18:56:41.381Z,101440.00
2022-08-05T18:59:43.128Z,101448.00
2022-08-05T19:02:28.197Z,101441.00
2022-08-05T19:06:06.222Z,101448.00
2022-08-05T19:07:58.156Z,101442.00
2022-08-05T19:10:30.608Z,101437.00
2022-08-05T19:13:03.009Z,101444.00
2022-08-05T19:15:57.194Z,101431.00
2022-08-05T19:18:26.622Z,101438.00
2022-08-05T19:20:57.148Z,101441.00
2022-08-05T19:24:07.429Z,101438.00
2022-08-05T19:26:16.810Z,101431.00
2022-08-05T19:28:46.213Z,101433.00
2022-08-05T19:31:17.745Z,101437.00
2022-08-05T19:33:56.664Z,101426.00
2022-08-05T19:36:29.287Z,101434.00
2022-08-05T19:39:02.022Z,101419.00
2022-08-05T19:42:06.134Z,101426.00
2022-08-05T19:44:29.102Z,101422.00
2022-08-05T19:46:58.613Z,101423.00
2022-08-05T19:49:29.654Z,101425.00
2022-08-05T19:52:08.374Z,101428.00
2022-08-05T19:54:50.648Z,101427.00
2022-08-05T19:57:47.585Z,101414.00
2022-08-05T20:00:16.374Z,101419.00
2022-08-05T20:02:50.173Z,101419.00
2022-08-05T20:05:24.472Z,101422.00
2022-08-05T20:07:59.088Z,101419.00
2022-08-05T20:10:28.745Z,101417.00
2022-08-05T20:12:58.557Z,101425.00
2022-08-05T20:15:52.018Z,101410.00
2022-08-05T20:18:33.967Z,101415.00
2022-08-05T20:21:08.997Z,101417.00
2022-08-05T20:23:51.253Z,101412.00
2022-08-05T20:26:24.836Z,101406.00
2022-08-05T20:29:00.680Z,101409.00
2022-08-05T20:31:42.817Z,101405.00
2022-08-05T20:34:23.235Z,101407.00
2022-08-05T20:36:56.662Z,101397.00
2022-08-05T20:39:26.009Z,101397.00
2022-08-05T20:42:06.736Z,101398.00
2022-08-05T20:44:40.885Z,101398.00
2022-08-05T20:47:10.419Z,101396.00
2022-08-05T20:49:40.185Z,101393.00
2022-08-05T20:52:12.327Z,101394.00
2022-08-05T20:54:43.201Z,101389.00
2022-08-05T20:57:44.057Z,101392.00
2022-08-05T21:00:41.029Z,101387.00
2022-08-05T21:03:07.902Z,101383.00
2022-08-05T21:05:53.708Z,101375.00
2022-08-05T21:08:26.595Z,101377.00
2022-08-05T21:11:09.903Z,101372.00
2022-08-05T21:13:55.852Z,101372.00
2022-08-05T21:16:29.117Z,101374.00
2022-08-05T21:19:00.884Z,101371.00
2022-08-05T21:21:44.006Z,101372.00
2022-08-05T21:24:20.672Z,101376.00
2022-08-05T21:26:58.065Z,101372.00
2022-08-05T21:29:32.090Z,101371.00
2022-08-05T21:32:03.511Z,101378.00
2022-08-05T21:34:32.943Z,101375.00
2022-08-05T21:37:08.305Z,101375.00
2022-08-05T21:39:40.271Z,101370.00
2022-08-05T21:42:30.964Z,101373.00
2022-08-05T21:45:04.988Z,101370.00
2022-08-05T21:47:57.134Z,101362.00
2022-08-05T21:50:23.233Z,101370.00
2022-08-05T21:52:52.361Z,101365.00
2022-08-05T21:56:01.375Z,101360.00
2022-08-05T21:58:12.038Z,101362.00
2022-08-05T22:00:41.272Z,101368.00
2022-08-05T22:03:20.538Z,101361.00
2022-08-05T22:06:08.891Z,101356.00
2022-08-05T22:08:37.655Z,101356.00
2022-08-05T22:11:15.596Z,101350.00
2022-08-05T22:14:32.329Z,101359.00
2022-08-05T22:16:42.053Z,101355.00
2022-08-05T22:20:02.180Z,101351.00
2022-08-05T22:22:10.757Z,101359.00
2022-08-05T22:24:58.230Z,101358.00
2022-08-05T22:28:08.707Z,101352.00
2022-08-05T22:30:36.033Z,101366.00
2022-08-05T22:33:15.304Z,101357.00
2022-08-05T22:35:47.934Z,101351.00
2022-08-05T22:38:19.598Z,101346.00
2022-08-05T22:40:54.937Z,101351.00
2022-08-05T22:43:36.955Z,101355.00
2022-08-05T22:46:13.536Z,101350.00
2022-08-05T22:48:52.382Z,101344.00
2022-08-05T22:51:23.278Z,101341.00
2022-08-05T22:54:10.014Z,101348.00
2022-08-05T22:56:40.040Z,101336.00
2022-08-05T22:59:48.559Z,101334.00
2022-08-05T23:02:05.944Z,101336.00
2022-08-05T23:04:39.586Z,101339.00
2022-08-05T23:07:08.757Z,101336.00
2022-08-05T23:09:57.374Z,101332.00
2022-08-05T23:12:28.550Z,101332.00
2022-08-05T23:15:03.363Z,101335.00
2022-08-05T23:17:59.886Z,101324.00
2022-08-05T23:20:24.558Z,101324.00
2022-08-05T23:22:55.950Z,101323.00
2022-08-05T23:25:51.409Z,101328.00
2022-08-05T23:28:15.967Z,101321.00
2022-08-05T23:30:53.735Z,101326.00
2022-08-05T23:33:26.156Z,101333.00
2022-08-05T23:36:14.029Z,101325.00
2022-08-05T23:38:43.784Z,101326.00
2022-08-05T23:41:13.075Z,101325.00
2022-08-05T23:44:06.093Z,101315.00
2022-08-05T23:46:32.598Z,101317.00
2022-08-05T23:49:15.628Z,101321.00
2022-08-05T23:52:02.730Z,101309.00
2022-08-05T23:54:38.113Z,101314.00
2022-08-05T23:57:09.002Z,101311.00
